createdAt,value
2017-08-27T00:00:26.135Z,100449.99
2017-08-27T00:02:55.188Z,100451.56
2017-08-27T00:05:24.276Z,100456.48
2017-08-27T00:07:53.333Z,100453.53
2017-08-27T00:10:22.488Z,100458.48
2017-08-27T00:12:51.538Z,100454.52
2017-08-27T00:15:20.630Z,100447.23
2017-08-27T00:17:49.700Z,100451.95
2017-08-27T00:20:18.764Z,100448.59
2017-08-27T00:22:47.853Z,100444.09
2017-08-27T00:25:16.948Z,100447.83
2017-08-27T00:27:46.021Z,100444.86
2017-08-27T00:30:15.129Z,100447.41
2017-08-27T00:32:44.231Z,100446.05
2017-08-27T00:35:13.309Z,100447.44
2017-08-27T00:37:42.387Z,100444.16
2017-08-27T00:40:11.565Z,100441.80
2017-08-27T00:42:40.642Z,100440.61
2017-08-27T00:45:10.550Z,100440.94
2017-08-27T00:47:39.625Z,100437.19
2017-08-27T00:50:08.687Z,100445.45
2017-08-27T00:52:37.765Z,100447.63
2017-08-27T00:55:06.853Z,100456.09
2017-08-27T00:57:35.935Z,100459.41
2017-08-27T01:00:05.765Z,100457.80
2017-08-27T01:02:34.856Z,100458.78
2017-08-27T01:05:03.945Z,100458.64
2017-08-27T01:07:33.019Z,100462.02
2017-08-27T01:10:02.111Z,100462.39
2017-08-27T01:12:31.160Z,100464.16
2017-08-27T01:15:01.364Z,100465.92
2017-08-27T01:17:30.497Z,100467.71
2017-08-27T01:19:59.585Z,100463.98
2017-08-27T01:22:28.671Z,100467.98
2017-08-27T01:24:57.712Z,100471.52
2017-08-27T01:27:26.787Z,100467.41
2017-08-27T01:29:55.851Z,100468.39
2017-08-27T01:32:24.919Z,100481.98
2017-08-27T01:34:53.993Z,100480.91
2017-08-27T01:37:23.309Z,100477.92
2017-08-27T01:39:52.377Z,100477.34
2017-08-27T01:42:21.420Z,100473.74
2017-08-27T01:44:50.509Z,100467.03
2017-08-27T01:47:19.561Z,100477.36
2017-08-27T01:49:48.984Z,100471.37
2017-08-27T01:52:18.035Z,100480.56
2017-08-27T01:54:47.366Z,100481.28
2017-08-27T01:57:16.444Z,100488.55
2017-08-27T01:59:45.643Z,100480.39
2017-08-27T02:02:14.728Z,100482.45
2017-08-27T02:04:43.795Z,100488.92
2017-08-27T02:07:12.833Z,100483.13
2017-08-27T02:09:41.911Z,100482.51
2017-08-27T02:12:10.978Z,100480.89
2017-08-27T02:14:40.060Z,100486.00
2017-08-27T02:17:09.157Z,100491.67
2017-08-27T02:19:38.200Z,100485.35
2017-08-27T02:22:07.647Z,100485.95
2017-08-27T02:24:36.695Z,100489.27
2017-08-27T02:27:06.156Z,100487.71
2017-08-27T02:29:35.963Z,100493.05
2017-08-27T02:32:05.035Z,100493.47
2017-08-27T02:34:34.088Z,100494.45
2017-08-27T02:37:03.204Z,100498.23
2017-08-27T02:39:32.649Z,100495.69
2017-08-27T02:42:01.744Z,100489.73
2017-08-27T02:44:30.795Z,100495.03
2017-08-27T02:46:59.859Z,100491.50
2017-08-27T02:49:29.006Z,100494.31
2017-08-27T02:51:58.074Z,100500.09
2017-08-27T02:54:27.264Z,100504.44
2017-08-27T02:56:57.272Z,100502.50
2017-08-27T02:59:26.359Z,100509.36
2017-08-27T03:01:55.423Z,100513.92
2017-08-27T03:04:24.523Z,100515.94
2017-08-27T03:06:54.349Z,100516.05
2017-08-27T03:09:23.409Z,100522.94
2017-08-27T03:11:52.465Z,100519.20
2017-08-27T03:14:21.534Z,100518.84
2017-08-27T03:16:51.375Z,100526.02
2017-08-27T03:19:20.497Z,100531.42
2017-08-27T03:21:49.602Z,100531.89
2017-08-27T03:24:18.688Z,100527.22
2017-08-27T03:26:47.743Z,100530.77
2017-08-27T03:29:16.835Z,100531.14
2017-08-27T03:31:45.903Z,100530.74
2017-08-27T03:34:15.025Z,100540.06
2017-08-27T03:36:44.204Z,100537.91
2017-08-27T03:39:14.056Z,100535.55
2017-08-27T03:41:43.123Z,100541.98
2017-08-27T03:44:12.200Z,100543.12
2017-08-27T03:46:41.290Z,100548.17
2017-08-27T03:49:10.367Z,100549.91
2017-08-27T03:51:39.415Z,100552.55
2017-08-27T03:54:08.486Z,100550.42
2017-08-27T03:56:38.315Z,100558.17
2017-08-27T03:59:07.391Z,100559.56
2017-08-27T04:01:37.230Z,100556.86
2017-08-27T04:04:06.301Z,100561.52
2017-08-27T04:06:36.169Z,100549.39
2017-08-27T04:09:05.227Z,100556.59
2017-08-27T04:11:34.300Z,100552.27
2017-08-27T04:14:03.387Z,100557.00
2017-08-27T04:16:32.484Z,100564.48
2017-08-27T04:19:01.547Z,100560.33
2017-08-27T04:21:30.636Z,100556.77
2017-08-27T04:23:59.732Z,100567.52
2017-08-27T04:26:28.780Z,100558.06
2017-08-27T04:28:57.861Z,100561.15
2017-08-27T04:31:26.911Z,100572.27
2017-08-27T04:33:55.975Z,100568.33
2017-08-27T04:36:25.051Z,100573.38
2017-08-27T04:38:54.865Z,100588.95
2017-08-27T04:41:24.695Z,100592.31
2017-08-27T04:43:53.785Z,100598.31
2017-08-27T04:46:22.869Z,100598.27
2017-08-27T04:48:52.703Z,100598.30
2017-08-27T04:51:21.764Z,100591.62
2017-08-27T04:53:50.876Z,100599.69
2017-08-27T04:56:19.939Z,100606.34
2017-08-27T04:58:49.020Z,100611.78
2017-08-27T05:01:18.091Z,100610.39
2017-08-27T05:03:47.188Z,100615.09
2017-08-27T05:06:16.238Z,100609.88
2017-08-27T05:08:45.312Z,100611.23
2017-08-27T05:11:14.384Z,100611.87
2017-08-27T05:13:43.457Z,100613.48
2017-08-27T05:16:12.540Z,100614.06
2017-08-27T05:18:42.535Z,100610.63
2017-08-27T05:21:11.608Z,100613.56
2017-08-27T05:23:40.677Z,100615.52
2017-08-27T05:26:09.792Z,100616.69
2017-08-27T05:28:39.059Z,100612.58
2017-08-27T05:31:08.144Z,100616.13
2017-08-27T05:33:37.280Z,100622.27
2017-08-27T05:36:06.623Z,100622.91
2017-08-27T05:38:35.660Z,100628.59
2017-08-27T05:41:04.948Z,100633.94
2017-08-27T05:43:34.005Z,100634.09
2017-08-27T05:46:03.849Z,100635.21
2017-08-27T05:48:32.904Z,100637.91
2017-08-27T05:51:01.983Z,100635.67
2017-08-27T05:53:31.094Z,100647.39
2017-08-27T05:56:00.125Z,100630.64
2017-08-27T05:58:29.218Z,100633.09
2017-08-27T06:00:58.296Z,100637.85
2017-08-27T06:03:27.367Z,100636.96
2017-08-27T06:05:56.448Z,100639.60
2017-08-27T06:08:25.496Z,100641.38
2017-08-27T06:10:54.561Z,100645.42
2017-08-27T06:13:23.626Z,100642.59
2017-08-27T06:15:52.741Z,100645.88
2017-08-27T06:18:21.818Z,100644.92
2017-08-27T06:20:51.098Z,100643.83
2017-08-27T06:23:20.196Z,100647.66
2017-08-27T06:25:49.253Z,100644.95
2017-08-27T06:28:18.334Z,100650.81
2017-08-27T06:30:47.397Z,100655.39
2017-08-27T06:33:16.459Z,100657.19
2017-08-27T06:35:45.563Z,100657.31
2017-08-27T06:38:14.604Z,100663.64
2017-08-27T06:40:43.684Z,100659.95
2017-08-27T06:43:12.740Z,100662.63
2017-08-27T06:45:41.831Z,100657.41
2017-08-27T06:48:10.905Z,100663.25
2017-08-27T06:50:39.975Z,100665.88
2017-08-27T06:53:09.162Z,100656.23
2017-08-27T06:55:38.232Z,100661.08
2017-08-27T06:58:07.640Z,100663.33
2017-08-27T07:00:36.711Z,100672.59
2017-08-27T07:03:05.828Z,100679.23
2017-08-27T07:05:35.186Z,100682.96
2017-08-27T07:08:04.256Z,100681.20
2017-08-27T07:10:33.321Z,100684.84
2017-08-27T07:13:02.396Z,100687.66
2017-08-27T07:15:31.572Z,100686.12
2017-08-27T07:18:00.644Z,100694.70
2017-08-27T07:20:29.700Z,100700.64
2017-08-27T07:22:58.817Z,100698.49
2017-08-27T07:25:27.924Z,100701.34
2017-08-27T07:27:56.971Z,100701.84
2017-08-27T07:30:26.071Z,100707.38
2017-08-27T07:32:55.125Z,100702.80
2017-08-27T07:35:24.217Z,100699.36
2017-08-27T07:37:53.289Z,100705.39
2017-08-27T07:40:22.340Z,100711.36
2017-08-27T07:42:51.415Z,100713.19
2017-08-27T07:45:20.826Z,100718.91
2017-08-27T07:47:50.656Z,100723.74
2017-08-27T07:50:19.725Z,100733.77
2017-08-27T07:52:48.797Z,100737.72
2017-08-27T07:55:17.854Z,100742.61
2017-08-27T07:57:46.915Z,100742.80
2017-08-27T08:00:15.992Z,100740.45
2017-08-27T08:02:45.091Z,100742.37
2017-08-27T08:05:15.000Z,100738.03
2017-08-27T08:07:44.222Z,100739.00
2017-08-27T08:10:13.283Z,100735.98
2017-08-27T08:12:42.333Z,100742.05
2017-08-27T08:15:11.447Z,100742.72
2017-08-27T08:17:40.589Z,100749.91
2017-08-27T08:20:10.004Z,100748.61
2017-08-27T08:22:39.068Z,100748.13
2017-08-27T08:25:08.748Z,100751.89
2017-08-27T08:27:37.838Z,100751.63
2017-08-27T08:30:06.971Z,100753.27
2017-08-27T08:32:36.040Z,100747.98
2017-08-27T08:35:05.133Z,100755.03
2017-08-27T08:37:34.196Z,100754.39
2017-08-27T08:40:03.276Z,100745.89
2017-08-27T08:42:32.324Z,100752.07
2017-08-27T08:45:01.388Z,100747.23
2017-08-27T08:47:30.448Z,100751.17
2017-08-27T08:49:59.501Z,100760.58
2017-08-27T08:52:28.607Z,100759.03
2017-08-27T08:54:57.706Z,100762.66
2017-08-27T08:57:26.805Z,100760.87
2017-08-27T08:59:55.872Z,100747.83
2017-08-27T09:02:24.949Z,100763.07
2017-08-27T09:04:54.025Z,100759.72
2017-08-27T09:07:23.085Z,100765.05
2017-08-27T09:09:52.132Z,100767.61
2017-08-27T09:12:21.224Z,100757.01
2017-08-27T09:14:50.283Z,100761.81
2017-08-27T09:17:19.359Z,100765.89
2017-08-27T09:19:48.405Z,100767.97
2017-08-27T09:22:18.266Z,100758.67
2017-08-27T09:24:47.339Z,100754.97
2017-08-27T09:27:16.422Z,100752.47
2017-08-27T09:29:45.494Z,100760.22
2017-08-27T09:32:14.555Z,100763.35
2017-08-27T09:34:43.611Z,100764.34
2017-08-27T09:39:40.954Z,100765.33
2017-08-27T09:42:10.292Z,100759.00
2017-08-27T09:44:39.359Z,100759.98
2017-08-27T09:47:08.438Z,100755.71
2017-08-27T09:49:37.517Z,100757.36
2017-08-27T09:52:06.568Z,100760.36
2017-08-27T09:54:35.620Z,100767.94
2017-08-27T09:57:04.753Z,100759.42
2017-08-27T09:59:33.786Z,100759.45
2017-08-27T10:02:02.864Z,100766.55
2017-08-27T10:04:32.175Z,100771.52
2017-08-27T10:07:02.132Z,100767.41
2017-08-27T10:09:31.182Z,100763.13
2017-08-27T10:12:00.239Z,100770.47
2017-08-27T10:14:29.472Z,100772.27
2017-08-27T10:16:58.532Z,100774.50
2017-08-27T10:19:27.625Z,100774.69
2017-08-27T10:21:56.678Z,100775.45
2017-08-27T10:24:25.725Z,100775.28
2017-08-27T10:26:55.077Z,100764.20
2017-08-27T10:29:24.136Z,100768.36
2017-08-27T10:31:53.227Z,100773.91
2017-08-27T10:34:22.297Z,100775.88
2017-08-27T10:36:51.370Z,100778.27
2017-08-27T10:39:20.442Z,100784.23
2017-08-27T10:41:49.893Z,100778.80
2017-08-27T10:44:18.978Z,100787.70
2017-08-27T10:46:48.174Z,100772.82
2017-08-27T10:49:17.244Z,100770.03
2017-08-27T10:51:46.324Z,100774.59
2017-08-27T10:54:15.372Z,100771.63
2017-08-27T10:56:44.556Z,100766.70
2017-08-27T10:59:13.634Z,100766.12
2017-08-27T11:01:42.753Z,100766.52
2017-08-27T11:04:11.802Z,100762.77
2017-08-27T11:06:40.855Z,100768.49
2017-08-27T11:09:09.947Z,100766.91
2017-08-27T11:11:38.988Z,100767.10
2017-08-27T11:14:08.048Z,100758.19
2017-08-27T11:16:37.112Z,100759.36
2017-08-27T11:19:06.188Z,100753.59
2017-08-27T11:21:35.207Z,100747.08
2017-08-27T11:24:04.300Z,100759.73
2017-08-27T11:26:33.370Z,100751.20
2017-08-27T11:29:02.430Z,100757.34
2017-08-27T11:31:31.505Z,100751.20
2017-08-27T11:34:00.560Z,100749.62
2017-08-27T11:36:29.617Z,100750.82
2017-08-27T11:38:58.671Z,100737.58
2017-08-27T11:41:27.732Z,100738.19
2017-08-27T11:43:56.788Z,100741.73
2017-08-27T11:46:25.862Z,100741.18
2017-08-27T11:48:54.969Z,100747.95
2017-08-27T11:51:23.996Z,100746.76
2017-08-27T11:53:53.037Z,100748.13
2017-08-27T11:56:22.252Z,100752.06
2017-08-27T11:58:51.302Z,100748.66
2017-08-27T12:01:20.366Z,100735.17
2017-08-27T12:03:49.475Z,100743.49
2017-08-27T12:06:18.577Z,100746.47
2017-08-27T12:08:47.919Z,100736.97
2017-08-27T12:11:16.983Z,100744.33
2017-08-27T12:13:46.064Z,100734.60
2017-08-27T12:16:15.192Z,100732.63
2017-08-27T12:18:44.306Z,100734.00
2017-08-27T12:21:13.343Z,100734.60
2017-08-27T12:23:42.401Z,100737.16
2017-08-27T12:26:11.455Z,100728.66
2017-08-27T12:28:40.555Z,100726.48
2017-08-27T12:31:09.628Z,100729.28
2017-08-27T12:33:38.687Z,100732.05
2017-08-27T12:36:07.780Z,100737.05
2017-08-27T12:38:36.812Z,100733.09
2017-08-27T12:41:05.915Z,100723.19
2017-08-27T12:43:35.024Z,100731.31
2017-08-27T12:46:04.092Z,100727.34
2017-08-27T12:48:33.147Z,100731.70
2017-08-27T12:51:02.211Z,100726.33
2017-08-27T12:53:31.272Z,100725.76
2017-08-27T12:56:00.347Z,100724.74
2017-08-27T12:58:29.396Z,100718.60
2017-08-27T13:00:58.499Z,100718.99
2017-08-27T13:03:27.614Z,100724.55
2017-08-27T13:05:56.698Z,100712.45
2017-08-27T13:08:25.771Z,100711.86
2017-08-27T13:10:54.864Z,100703.72
2017-08-27T13:13:23.977Z,100703.91
2017-08-27T13:15:53.057Z,100714.02
2017-08-27T13:18:22.129Z,100714.41
2017-08-27T13:20:51.189Z,100721.95
2017-08-27T13:23:20.507Z,100717.81
2017-08-27T13:25:49.574Z,100710.09
2017-08-27T13:28:18.616Z,100713.64
2017-08-27T13:30:47.707Z,100718.36
2017-08-27T13:33:16.744Z,100722.13
2017-08-27T13:35:45.793Z,100719.34
2017-08-27T13:38:14.855Z,100718.34
2017-08-27T13:40:43.902Z,100710.57
2017-08-27T13:43:13.000Z,100720.52
2017-08-27T13:45:43.089Z,100717.95
2017-08-27T13:48:12.169Z,100718.74
2017-08-27T13:50:41.234Z,100714.77
2017-08-27T13:53:10.328Z,100715.17
2017-08-27T13:55:39.411Z,100716.20
2017-08-27T13:58:08.465Z,100712.23
2017-08-27T14:00:37.545Z,100717.80
2017-08-27T14:03:06.892Z,100719.19
2017-08-27T14:05:36.045Z,100719.39
2017-08-27T14:08:05.124Z,100721.58
2017-08-27T14:10:34.196Z,100719.18
2017-08-27T14:13:03.243Z,100715.02
2017-08-27T14:15:32.443Z,100715.63
2017-08-27T14:18:01.636Z,100719.77
2017-08-27T14:20:30.691Z,100718.18
2017-08-27T14:22:59.760Z,100725.53
2017-08-27T14:25:28.875Z,100719.77
2017-08-27T14:27:58.027Z,100717.77
2017-08-27T14:30:27.405Z,100721.95
2017-08-27T14:32:56.424Z,100727.91
2017-08-27T14:35:25.506Z,100718.57
2017-08-27T14:37:54.560Z,100724.69
2017-08-27T14:40:23.857Z,100721.14
2017-08-27T14:42:52.923Z,100716.55
2017-08-27T14:45:22.013Z,100714.96
2017-08-27T14:47:51.085Z,100716.18
2017-08-27T14:50:21.033Z,100712.63
2017-08-27T14:52:50.140Z,100719.76
2017-08-27T14:55:19.807Z,100708.67
2017-08-27T14:57:48.907Z,100712.24
2017-08-27T15:00:18.095Z,100715.63
2017-08-27T15:02:47.133Z,100711.87
2017-08-27T15:05:16.457Z,100707.11
2017-08-27T15:07:45.480Z,100702.73
2017-08-27T15:10:14.566Z,100704.53
2017-08-27T15:12:43.619Z,100704.12
2017-08-27T15:15:13.332Z,100708.06
2017-08-27T15:17:42.384Z,100699.97
2017-08-27T15:20:11.442Z,100698.56
2017-08-27T15:22:40.547Z,100713.42
2017-08-27T15:25:09.619Z,100706.51
2017-08-27T15:27:38.660Z,100701.35
2017-08-27T15:30:08.010Z,100706.89
2017-08-27T15:32:37.060Z,100709.88
2017-08-27T15:35:06.147Z,100718.39
2017-08-27T15:37:35.232Z,100714.23
2017-08-27T15:40:04.342Z,100713.24
2017-08-27T15:42:33.408Z,100719.79
2017-08-27T15:45:02.480Z,100707.87
2017-08-27T15:47:31.537Z,100703.13
2017-08-27T15:50:00.580Z,100703.11
2017-08-27T15:52:29.664Z,100702.31
2017-08-27T15:54:58.764Z,100702.33
2017-08-27T15:57:27.875Z,100702.90
2017-08-27T15:59:56.913Z,100699.33
2017-08-27T16:02:25.997Z,100705.27
2017-08-27T16:04:55.273Z,100696.53
2017-08-27T16:07:24.357Z,100695.92
2017-08-27T16:09:53.490Z,100698.33
2017-08-27T16:12:22.524Z,100693.75
2017-08-27T16:14:51.600Z,100692.97
2017-08-27T16:17:20.673Z,100695.34
2017-08-27T16:19:49.757Z,100698.90
2017-08-27T16:22:18.825Z,100697.34
2017-08-27T16:24:47.879Z,100693.92
2017-08-27T16:27:16.948Z,100701.09
2017-08-27T16:29:45.987Z,100699.50
2017-08-27T16:32:15.053Z,100702.69
2017-08-27T16:34:44.395Z,100704.67
2017-08-27T16:37:13.446Z,100701.50
2017-08-27T16:39:42.595Z,100702.90
2017-08-27T16:42:11.696Z,100698.54
2017-08-27T16:44:40.752Z,100698.73
2017-08-27T16:47:27.676Z,100697.73
2017-08-27T16:49:56.740Z,100697.95
2017-08-27T16:52:25.813Z,100701.91
2017-08-27T16:54:55.099Z,100702.14
2017-08-27T16:57:24.211Z,100697.75
2017-08-27T16:59:53.284Z,100692.22
2017-08-27T17:02:22.355Z,100695.22
2017-08-27T17:04:51.425Z,100692.83
2017-08-27T17:07:20.508Z,100689.46
2017-08-27T17:09:49.569Z,100681.52
2017-08-27T17:12:18.629Z,100679.73
2017-08-27T17:14:47.750Z,100687.89
2017-08-27T17:17:16.830Z,100686.70
2017-08-27T17:19:45.873Z,100679.76
2017-08-27T17:22:14.947Z,100685.12
2017-08-27T17:24:44.007Z,100688.30
2017-08-27T17:27:13.093Z,100687.70
2017-08-27T17:29:42.173Z,100687.52
2017-08-27T17:32:11.368Z,100685.13
2017-08-27T17:34:40.435Z,100685.32
2017-08-27T17:37:09.530Z,100677.19
2017-08-27T17:39:38.619Z,100679.77
2017-08-27T17:42:07.685Z,100673.42
2017-08-27T17:44:36.746Z,100684.70
2017-08-27T17:47:05.903Z,100693.20
2017-08-27T17:49:34.982Z,100690.03
2017-08-27T17:52:04.120Z,100690.63
2017-08-27T17:54:33.180Z,100684.87
2017-08-27T17:57:02.269Z,100696.74
2017-08-27T17:59:31.321Z,100704.05
2017-08-27T18:02:00.424Z,100699.09
2017-08-27T18:04:29.476Z,100699.66
2017-08-27T18:06:58.556Z,100700.05
2017-08-27T18:09:27.643Z,100700.59
2017-08-27T18:11:56.696Z,100702.38
2017-08-27T18:14:25.785Z,100701.58
2017-08-27T18:16:54.859Z,100704.58
2017-08-27T18:19:23.908Z,100707.34
2017-08-27T18:21:52.951Z,100710.09
2017-08-27T18:24:22.045Z,100711.93
2017-08-27T18:26:51.132Z,100712.13
2017-08-27T18:29:20.196Z,100705.17
2017-08-27T18:31:49.269Z,100713.66
2017-08-27T18:34:18.636Z,100712.02
2017-08-27T18:36:47.680Z,100706.65
2017-08-27T18:39:16.725Z,100717.47
2017-08-27T18:41:45.837Z,100717.59
2017-08-27T18:44:14.928Z,100721.11
2017-08-27T18:46:44.004Z,100723.40
2017-08-27T18:49:13.091Z,100727.82
2017-08-27T18:51:42.139Z,100737.25
2017-08-27T18:54:11.232Z,100733.05
2017-08-27T18:56:40.306Z,100733.39
2017-08-27T18:59:09.392Z,100739.45
2017-08-27T19:01:38.459Z,100741.58
2017-08-27T19:04:07.509Z,100742.60
2017-08-27T19:06:36.572Z,100743.13
2017-08-27T19:09:05.661Z,100743.41
2017-08-27T19:11:34.761Z,100751.58
2017-08-27T19:14:03.850Z,100759.20
2017-08-27T19:16:32.925Z,100760.10
2017-08-27T19:19:02.005Z,100765.40
2017-08-27T19:21:31.095Z,100768.50
2017-08-27T19:24:00.171Z,100768.22
2017-08-27T19:26:29.615Z,100763.34
2017-08-27T19:28:58.871Z,100771.52
2017-08-27T19:31:27.920Z,100765.70
2017-08-27T19:33:56.988Z,100774.31
2017-08-27T19:36:26.068Z,100775.09
2017-08-27T19:38:55.132Z,100774.58
2017-08-27T19:41:24.201Z,100772.37
2017-08-27T19:43:53.272Z,100775.68
2017-08-27T19:46:22.346Z,100777.58
2017-08-27T19:48:51.436Z,100775.96
2017-08-27T19:51:20.477Z,100775.72
2017-08-27T19:53:49.539Z,100782.23
2017-08-27T19:56:18.645Z,100784.38
2017-08-27T19:58:47.695Z,100778.64
2017-08-27T20:01:16.786Z,100782.85
2017-08-27T20:03:45.869Z,100781.59
2017-08-27T20:06:14.967Z,100785.32
2017-08-27T20:08:44.026Z,100791.25
2017-08-27T20:11:13.185Z,100795.77
2017-08-27T20:13:42.225Z,100796.15
2017-08-27T20:16:11.372Z,100797.72
2017-08-27T20:18:40.604Z,100807.08
2017-08-27T20:21:09.671Z,100804.00
2017-08-27T20:23:38.757Z,100805.28
2017-08-27T20:26:07.847Z,100806.83
2017-08-27T20:28:36.908Z,100809.91
2017-08-27T20:31:06.136Z,100807.34
2017-08-27T20:33:35.215Z,100806.45
2017-08-27T20:36:04.279Z,100806.94
2017-08-27T20:38:33.594Z,100811.64
2017-08-27T20:41:02.669Z,100812.38
2017-08-27T20:43:31.746Z,100808.87
2017-08-27T20:46:00.790Z,100809.93
2017-08-27T20:48:29.837Z,100816.04
2017-08-27T20:50:58.914Z,100817.86
2017-08-27T20:53:27.978Z,100814.95
2017-08-27T20:55:57.044Z,100817.20
2017-08-27T20:58:26.145Z,100821.25
2017-08-27T21:00:55.195Z,100819.55
2017-08-27T21:03:24.263Z,100822.71
2017-08-27T21:05:53.372Z,100824.41
2017-08-27T21:08:22.428Z,100820.00
2017-08-27T21:10:51.469Z,100815.94
2017-08-27T21:13:20.558Z,100815.81
2017-08-27T21:15:49.775Z,100808.88
2017-08-27T21:18:18.880Z,100812.86
2017-08-27T21:20:47.944Z,100811.55
2017-08-27T21:23:17.045Z,100819.98
2017-08-27T21:25:46.091Z,100820.38
2017-08-27T21:28:15.154Z,100816.56
2017-08-27T21:30:44.209Z,100814.73
2017-08-27T21:33:13.288Z,100810.29
2017-08-27T21:35:42.368Z,100814.91
2017-08-27T21:38:11.471Z,100808.17
2017-08-27T21:40:40.520Z,100806.25
2017-08-27T21:43:09.610Z,100806.39
2017-08-27T21:45:38.677Z,100804.59
2017-08-27T21:48:07.743Z,100812.05
2017-08-27T21:50:36.832Z,100808.26
2017-08-27T21:53:05.944Z,100807.67
2017-08-27T21:55:35.067Z,100810.00
2017-08-27T21:58:04.453Z,100810.80
2017-08-27T22:00:36.484Z,100812.53
2017-08-27T22:03:05.573Z,100813.30
2017-08-27T22:05:34.628Z,100810.73
2017-08-27T22:08:03.739Z,100813.38
2017-08-27T22:10:32.769Z,100814.54
2017-08-27T22:13:01.821Z,100814.84
2017-08-27T22:15:30.905Z,100805.58
2017-08-27T22:17:59.956Z,100815.70
2017-08-27T22:20:29.014Z,100817.69
2017-08-27T22:22:58.098Z,100820.28
2017-08-27T22:25:27.150Z,100816.12
2017-08-27T22:27:56.196Z,100818.95
2017-08-27T22:30:25.281Z,100812.41
2017-08-27T22:32:54.321Z,100811.51
2017-08-27T22:35:23.674Z,100812.81
2017-08-27T22:37:52.735Z,100813.14
2017-08-27T22:40:21.932Z,100812.86
2017-08-27T22:42:51.027Z,100816.92
2017-08-27T22:45:20.134Z,100818.73
2017-08-27T22:47:49.173Z,100816.75
2017-08-27T22:50:18.436Z,100814.58
2017-08-27T22:52:47.491Z,100813.78
2017-08-27T22:55:16.661Z,100811.58
2017-08-27T22:57:45.736Z,100815.88
2017-08-27T23:00:14.873Z,100812.15
2017-08-27T23:02:43.931Z,100814.43
2017-08-27T23:05:12.995Z,100820.43
2017-08-27T23:07:42.047Z,100812.84
2017-08-27T23:10:11.161Z,100809.30
2017-08-27T23:12:40.204Z,100813.45
2017-08-27T23:15:09.279Z,100819.98
2017-08-27T23:17:38.376Z,100818.97
2017-08-27T23:20:07.429Z,100826.86
2017-08-27T23:22:36.509Z,100821.54
2017-08-27T23:25:05.612Z,100820.09
2017-08-27T23:27:34.674Z,100818.67
2017-08-27T23:30:03.764Z,100814.62
2017-08-27T23:32:32.812Z,100820.69
2017-08-27T23:35:02.048Z,100821.05
2017-08-27T23:37:31.091Z,100816.13
2017-08-27T23:40:00.259Z,100819.94
2017-08-27T23:42:29.308Z,100821.70
2017-08-27T23:44:58.365Z,100821.13
2017-08-27T23:47:27.445Z,100820.63
2017-08-27T23:49:56.500Z,100817.56
2017-08-27T23:52:25.556Z,100817.38
2017-08-27T23:54:54.718Z,100814.05
2017-08-27T23:57:23.788Z,100818.97
2017-08-27T23:59:52.844Z,100817.16
